sensor_id;sensor_type;location;lat;lon;timestamp;temperature;humidity
71184;DHT22;58887;51.980;4.464;2023-07-02T00:02:06;18.60;73.43
71184;DHT22;58887;51.980;4.464;2023-07-02T00:04:32;18.63;72.75
71184;DHT22;58887;51.980;4.464;2023-07-02T00:06:57;18.59;72.43
71184;DHT22;58887;51.980;4.464;2023-07-02T00:09:23;18.52;72.26
71184;DHT22;58887;51.980;4.464;2023-07-02T00:11:50;18.42;72.37
71184;DHT22;58887;51.980;4.464;2023-07-02T00:14:19;18.38;71.67
71184;DHT22;58887;51.980;4.464;2023-07-02T00:16:45;18.33;70.63
71184;DHT22;58887;51.980;4.464;2023-07-02T00:19:14;18.38;69.60
71184;DHT22;58887;51.980;4.464;2023-07-02T00:21:40;18.33;69.48
71184;DHT22;58887;51.980;4.464;2023-07-02T00:24:06;18.24;68.45
71184;DHT22;58887;51.980;4.464;2023-07-02T00:26:33;18.36;67.37
71184;DHT22;58887;51.980;4.464;2023-07-02T00:28:58;18.25;66.30
71184;DHT22;58887;51.980;4.464;2023-07-02T00:31:24;18.28;65.03
71184;DHT22;58887;51.980;4.464;2023-07-02T00:33:50;18.28;64.46
71184;DHT22;58887;51.980;4.464;2023-07-02T00:36:16;18.19;64.24
71184;DHT22;58887;51.980;4.464;2023-07-02T00:38:44;18.19;62.76
71184;DHT22;58887;51.980;4.464;2023-07-02T00:41:11;18.22;63.19
71184;DHT22;58887;51.980;4.464;2023-07-02T00:43:36;18.21;62.80
71184;DHT22;58887;51.980;4.464;2023-07-02T00:46:04;18.25;62.44
71184;DHT22;58887;51.980;4.464;2023-07-02T00:48:30;18.22;62.50
71184;DHT22;58887;51.980;4.464;2023-07-02T00:50:56;18.18;62.07
71184;DHT22;58887;51.980;4.464;2023-07-02T00:53:22;18.26;62.11
71184;DHT22;58887;51.980;4.464;2023-07-02T00:55:47;18.16;62.27
71184;DHT22;58887;51.980;4.464;2023-07-02T00:58:13;18.18;62.70
71184;DHT22;58887;51.980;4.464;2023-07-02T01:00:42;18.01;63.28
71184;DHT22;58887;51.980;4.464;2023-07-02T01:03:07;17.97;62.88
71184;DHT22;58887;51.980;4.464;2023-07-02T01:05:33;18.01;61.25
71184;DHT22;58887;51.980;4.464;2023-07-02T01:08:04;17.91;60.67
71184;DHT22;58887;51.980;4.464;2023-07-02T01:10:32;17.88;60.73
71184;DHT22;58887;51.980;4.464;2023-07-02T01:13:14;17.84;60.26
71184;DHT22;58887;51.980;4.464;2023-07-02T01:15:42;17.81;59.67
71184;DHT22;58887;51.980;4.464;2023-07-02T01:18:12;17.81;59.30
71184;DHT22;58887;51.980;4.464;2023-07-02T01:20:40;17.82;58.61
71184;DHT22;58887;51.980;4.464;2023-07-02T01:23:06;17.77;58.83
71184;DHT22;58887;51.980;4.464;2023-07-02T01:25:33;17.66;58.84
71184;DHT22;58887;51.980;4.464;2023-07-02T01:28:02;17.60;59.09
71184;DHT22;58887;51.980;4.464;2023-07-02T01:30:28;17.61;59.10
71184;DHT22;58887;51.980;4.464;2023-07-02T01:32:53;17.71;59.11
71184;DHT22;58887;51.980;4.464;2023-07-02T01:35:19;17.67;58.83
71184;DHT22;58887;51.980;4.464;2023-07-02T01:37:44;17.70;59.29
71184;DHT22;58887;51.980;4.464;2023-07-02T01:40:10;17.64;59.43
71184;DHT22;58887;51.980;4.464;2023-07-02T01:42:36;17.55;58.69
71184;DHT22;58887;51.980;4.464;2023-07-02T01:45:02;17.54;58.95
71184;DHT22;58887;51.980;4.464;2023-07-02T01:47:28;17.51;59.50
71184;DHT22;58887;51.980;4.464;2023-07-02T01:49:54;17.47;59.52
71184;DHT22;58887;51.980;4.464;2023-07-02T01:52:19;17.50;59.07
71184;DHT22;58887;51.980;4.464;2023-07-02T01:54:45;17.55;59.18
71184;DHT22;58887;51.980;4.464;2023-07-02T01:57:11;17.49;59.58
71184;DHT22;58887;51.980;4.464;2023-07-02T01:59:37;17.46;59.99
71184;DHT22;58887;51.980;4.464;2023-07-02T02:02:02;17.43;60.00
71184;DHT22;58887;51.980;4.464;2023-07-02T02:04:27;17.40;60.20
71184;DHT22;58887;51.980;4.464;2023-07-02T02:06:53;17.36;60.43
71184;DHT22;58887;51.980;4.464;2023-07-02T02:09:19;17.41;60.55
71184;DHT22;58887;51.980;4.464;2023-07-02T02:11:50;17.30;60.62
71184;DHT22;58887;51.980;4.464;2023-07-02T02:14:17;17.12;60.88
71184;DHT22;58887;51.980;4.464;2023-07-02T02:16:43;17.18;60.69
71184;DHT22;58887;51.980;4.464;2023-07-02T02:19:12;17.22;60.85
71184;DHT22;58887;51.980;4.464;2023-07-02T02:21:41;17.22;60.93
71184;DHT22;58887;51.980;4.464;2023-07-02T02:24:07;17.26;60.89
71184;DHT22;58887;51.980;4.464;2023-07-02T02:26:35;17.20;60.98
71184;DHT22;58887;51.980;4.464;2023-07-02T02:29:01;17.27;60.91
71184;DHT22;58887;51.980;4.464;2023-07-02T02:31:27;17.23;61.00
71184;DHT22;58887;51.980;4.464;2023-07-02T02:33:53;17.18;61.24
71184;DHT22;58887;51.980;4.464;2023-07-02T02:36:20;17.15;61.58
71184;DHT22;58887;51.980;4.464;2023-07-02T02:38:46;17.16;61.67
71184;DHT22;58887;51.980;4.464;2023-07-02T02:41:12;17.15;61.97
71184;DHT22;58887;51.980;4.464;2023-07-02T02:43:42;17.10;62.19
71184;DHT22;58887;51.980;4.464;2023-07-02T02:46:10;17.09;62.14
71184;DHT22;58887;51.980;4.464;2023-07-02T02:48:37;17.09;62.48
71184;DHT22;58887;51.980;4.464;2023-07-02T02:51:03;17.06;62.74
71184;DHT22;58887;51.980;4.464;2023-07-02T02:53:29;17.05;62.96
71184;DHT22;58887;51.980;4.464;2023-07-02T02:55:54;16.95;63.20
71184;DHT22;58887;51.980;4.464;2023-07-02T02:58:20;16.98;63.52
71184;DHT22;58887;51.980;4.464;2023-07-02T03:00:45;17.01;63.65
71184;DHT22;58887;51.980;4.464;2023-07-02T03:03:12;16.95;63.89
71184;DHT22;58887;51.980;4.464;2023-07-02T03:05:38;16.96;63.90
71184;DHT22;58887;51.980;4.464;2023-07-02T03:08:06;16.89;64.04
71184;DHT22;58887;51.980;4.464;2023-07-02T03:10:32;16.96;63.69
71184;DHT22;58887;51.980;4.464;2023-07-02T03:12:59;16.82;64.16
71184;DHT22;58887;51.980;4.464;2023-07-02T03:15:25;16.93;64.22
71184;DHT22;58887;51.980;4.464;2023-07-02T03:17:51;16.91;63.97
71184;DHT22;58887;51.980;4.464;2023-07-02T03:20:16;16.98;63.46
71184;DHT22;58887;51.980;4.464;2023-07-02T03:22:42;16.91;63.59
71184;DHT22;58887;51.980;4.464;2023-07-02T03:25:08;16.78;63.78
71184;DHT22;58887;51.980;4.464;2023-07-02T03:27:34;16.79;63.70
71184;DHT22;58887;51.980;4.464;2023-07-02T03:29:59;16.72;63.72
71184;DHT22;58887;51.980;4.464;2023-07-02T03:32:26;16.79;63.54
71184;DHT22;58887;51.980;4.464;2023-07-02T03:34:51;16.75;63.55
71184;DHT22;58887;51.980;4.464;2023-07-02T03:37:17;16.69;63.52
71184;DHT22;58887;51.980;4.464;2023-07-02T03:39:43;16.78;63.13
71184;DHT22;58887;51.980;4.464;2023-07-02T03:42:08;16.69;63.22
71184;DHT22;58887;51.980;4.464;2023-07-02T03:44:34;16.79;62.81
71184;DHT22;58887;51.980;4.464;2023-07-02T03:47:01;16.75;62.72
71184;DHT22;58887;51.980;4.464;2023-07-02T03:49:28;16.76;62.94
71184;DHT22;58887;51.980;4.464;2023-07-02T03:51:54;16.64;62.83
71184;DHT22;58887;51.980;4.464;2023-07-02T03:54:26;16.81;61.99
71184;DHT22;58887;51.980;4.464;2023-07-02T03:56:51;16.79;62.24
71184;DHT22;58887;51.980;4.464;2023-07-02T03:59:17;16.76;62.17
71184;DHT22;58887;51.980;4.464;2023-07-02T04:01:43;16.76;62.59
71184;DHT22;58887;51.980;4.464;2023-07-02T04:04:09;16.69;62.72
71184;DHT22;58887;51.980;4.464;2023-07-02T04:06:35;16.71;62.86
71184;DHT22;58887;51.980;4.464;2023-07-02T04:09:00;16.75;62.73
71184;DHT22;58887;51.980;4.464;2023-07-02T04:11:25;16.82;62.65
71184;DHT22;58887;51.980;4.464;2023-07-02T04:13:51;16.78;62.71
71184;DHT22;58887;51.980;4.464;2023-07-02T04:16:17;16.78;62.51
71184;DHT22;58887;51.980;4.464;2023-07-02T04:18:43;16.76;62.00
71184;DHT22;58887;51.980;4.464;2023-07-02T04:21:09;16.83;62.00
71184;DHT22;58887;51.980;4.464;2023-07-02T04:23:36;16.85;62.10
71184;DHT22;58887;51.980;4.464;2023-07-02T04:26:02;16.79;62.28
71184;DHT22;58887;51.980;4.464;2023-07-02T04:28:27;16.76;62.72
71184;DHT22;58887;51.980;4.464;2023-07-02T04:30:53;16.75;62.30
71184;DHT22;58887;51.980;4.464;2023-07-02T04:33:18;16.75;62.42
71184;DHT22;58887;51.980;4.464;2023-07-02T04:35:45;16.86;62.34
71184;DHT22;58887;51.980;4.464;2023-07-02T04:38:12;16.82;62.77
71184;DHT22;58887;51.980;4.464;2023-07-02T04:40:37;16.86;63.09
71184;DHT22;58887;51.980;4.464;2023-07-02T04:43:04;16.92;63.23
71184;DHT22;58887;51.980;4.464;2023-07-02T04:45:30;16.86;63.97
71184;DHT22;58887;51.980;4.464;2023-07-02T04:48:03;16.76;64.61
71184;DHT22;58887;51.980;4.464;2023-07-02T04:50:29;16.78;64.82
71184;DHT22;58887;51.980;4.464;2023-07-02T04:52:54;16.75;64.46
71184;DHT22;58887;51.980;4.464;2023-07-02T04:55:20;16.88;64.66
71184;DHT22;58887;51.980;4.464;2023-07-02T04:57:46;16.92;64.63
71184;DHT22;58887;51.980;4.464;2023-07-02T05:00:12;16.79;64.71
71184;DHT22;58887;51.980;4.464;2023-07-02T05:02:38;16.96;64.46
71184;DHT22;58887;51.980;4.464;2023-07-02T05:05:04;17.02;64.38
71184;DHT22;58887;51.980;4.464;2023-07-02T05:07:30;17.01;64.35
71184;DHT22;58887;51.980;4.464;2023-07-02T05:09:56;17.18;64.05
71184;DHT22;58887;51.980;4.464;2023-07-02T05:12:23;17.16;63.86
71184;DHT22;58887;51.980;4.464;2023-07-02T05:14:48;17.18;63.55
71184;DHT22;58887;51.980;4.464;2023-07-02T05:17:14;17.20;63.49
71184;DHT22;58887;51.980;4.464;2023-07-02T05:19:40;17.32;63.22
71184;DHT22;58887;51.980;4.464;2023-07-02T05:22:06;17.30;63.21
71184;DHT22;58887;51.980;4.464;2023-07-02T05:24:32;17.39;63.00
71184;DHT22;58887;51.980;4.464;2023-07-02T05:26:57;17.50;62.75
71184;DHT22;58887;51.980;4.464;2023-07-02T05:29:23;17.64;62.72
71184;DHT22;58887;51.980;4.464;2023-07-02T05:31:48;17.60;62.63
71184;DHT22;58887;51.980;4.464;2023-07-02T05:34:13;17.73;62.40
71184;DHT22;58887;51.980;4.464;2023-07-02T05:36:39;17.54;62.02
71184;DHT22;58887;51.980;4.464;2023-07-02T05:39:06;17.46;62.04
71184;DHT22;58887;51.980;4.464;2023-07-02T05:41:32;17.57;62.13
71184;DHT22;58887;51.980;4.464;2023-07-02T05:43:58;17.54;62.98
71184;DHT22;58887;51.980;4.464;2023-07-02T05:46:24;17.50;63.46
71184;DHT22;58887;51.980;4.464;2023-07-02T05:48:49;17.59;62.93
71184;DHT22;58887;51.980;4.464;2023-07-02T05:51:24;17.37;63.10
71184;DHT22;58887;51.980;4.464;2023-07-02T05:53:50;17.67;63.04
71184;DHT22;58887;51.980;4.464;2023-07-02T05:56:16;17.43;61.37
71184;DHT22;58887;51.980;4.464;2023-07-02T05:58:42;17.50;61.84
71184;DHT22;58887;51.980;4.464;2023-07-02T06:01:08;17.55;62.02
71184;DHT22;58887;51.980;4.464;2023-07-02T06:03:33;17.67;61.91
71184;DHT22;58887;51.980;4.464;2023-07-02T06:05:59;17.69;61.99
71184;DHT22;58887;51.980;4.464;2023-07-02T06:08:24;17.64;61.42
71184;DHT22;58887;51.980;4.464;2023-07-02T06:10:50;17.46;61.91
71184;DHT22;58887;51.980;4.464;2023-07-02T06:13:17;17.53;61.72
71184;DHT22;58887;51.980;4.464;2023-07-02T06:15:43;17.69;61.20
71184;DHT22;58887;51.980;4.464;2023-07-02T06:18:09;17.71;61.68
71184;DHT22;58887;51.980;4.464;2023-07-02T06:20:35;17.71;60.89
71184;DHT22;58887;51.980;4.464;2023-07-02T06:23:01;17.85;61.09
71184;DHT22;58887;51.980;4.464;2023-07-02T06:25:31;17.90;60.79
71184;DHT22;58887;51.980;4.464;2023-07-02T06:27:57;17.94;59.65
71184;DHT22;58887;51.980;4.464;2023-07-02T06:30:26;18.04;59.08
71184;DHT22;58887;51.980;4.464;2023-07-02T06:32:53;17.92;59.86
71184;DHT22;58887;51.980;4.464;2023-07-02T06:35:24;18.11;59.69
71184;DHT22;58887;51.980;4.464;2023-07-02T06:37:50;18.02;59.07
71184;DHT22;58887;51.980;4.464;2023-07-02T06:40:15;18.24;58.45
71184;DHT22;58887;51.980;4.464;2023-07-02T06:42:41;18.40;56.98
71184;DHT22;58887;51.980;4.464;2023-07-02T06:45:08;18.36;56.46
71184;DHT22;58887;51.980;4.464;2023-07-02T06:47:34;18.06;57.33
71184;DHT22;58887;51.980;4.464;2023-07-02T06:49:59;18.05;58.06
71184;DHT22;58887;51.980;4.464;2023-07-02T06:52:25;18.21;58.16
71184;DHT22;58887;51.980;4.464;2023-07-02T06:54:51;18.38;58.27
71184;DHT22;58887;51.980;4.464;2023-07-02T06:57:16;18.25;58.18
71184;DHT22;58887;51.980;4.464;2023-07-02T06:59:48;18.32;58.40
71184;DHT22;58887;51.980;4.464;2023-07-02T07:02:13;18.49;58.16
71184;DHT22;58887;51.980;4.464;2023-07-02T07:04:39;18.30;57.46
71184;DHT22;58887;51.980;4.464;2023-07-02T07:07:04;18.26;58.14
71184;DHT22;58887;51.980;4.464;2023-07-02T07:09:30;18.18;57.30
71184;DHT22;58887;51.980;4.464;2023-07-02T07:11:56;18.26;57.56
71184;DHT22;58887;51.980;4.464;2023-07-02T07:14:22;18.33;56.46
71184;DHT22;58887;51.980;4.464;2023-07-02T07:16:47;18.36;56.49
71184;DHT22;58887;51.980;4.464;2023-07-02T07:19:13;18.38;54.95
71184;DHT22;58887;51.980;4.464;2023-07-02T07:21:38;18.33;55.55
71184;DHT22;58887;51.980;4.464;2023-07-02T07:24:05;18.42;55.76
71184;DHT22;58887;51.980;4.464;2023-07-02T07:26:33;18.40;54.70
71184;DHT22;58887;51.980;4.464;2023-07-02T07:28:58;18.71;55.06
71184;DHT22;58887;51.980;4.464;2023-07-02T07:31:24;18.69;54.32
71184;DHT22;58887;51.980;4.464;2023-07-02T07:33:50;18.71;54.33
71184;DHT22;58887;51.980;4.464;2023-07-02T07:36:16;18.86;54.19
71184;DHT22;58887;51.980;4.464;2023-07-02T07:38:45;18.74;53.89
71184;DHT22;58887;51.980;4.464;2023-07-02T07:41:12;18.94;54.47
71184;DHT22;58887;51.980;4.464;2023-07-02T07:43:37;19.14;54.70
71184;DHT22;58887;51.980;4.464;2023-07-02T07:46:03;19.36;55.14
71184;DHT22;58887;51.980;4.464;2023-07-02T07:48:39;19.29;55.15
71184;DHT22;58887;51.980;4.464;2023-07-02T07:51:11;19.51;53.41
71184;DHT22;58887;51.980;4.464;2023-07-02T07:56:58;19.54;53.43
71184;DHT22;58887;51.980;4.464;2023-07-02T07:59:24;19.68;54.07
71184;DHT22;58887;51.980;4.464;2023-07-02T08:01:49;19.79;54.28
71184;DHT22;58887;51.980;4.464;2023-07-02T08:04:15;19.63;52.46
71184;DHT22;58887;51.980;4.464;2023-07-02T08:06:41;19.80;52.45
71184;DHT22;58887;51.980;4.464;2023-07-02T08:09:07;19.79;52.44
71184;DHT22;58887;51.980;4.464;2023-07-02T08:11:32;19.93;51.77
71184;DHT22;58887;51.980;4.464;2023-07-02T08:14:02;19.96;52.32
71184;DHT22;58887;51.980;4.464;2023-07-02T08:16:28;20.16;52.24
71184;DHT22;58887;51.980;4.464;2023-07-02T08:19:00;20.05;50.83
71184;DHT22;58887;51.980;4.464;2023-07-02T08:21:27;19.97;50.18
71184;DHT22;58887;51.980;4.464;2023-07-02T08:23:52;19.82;51.81
71184;DHT22;58887;51.980;4.464;2023-07-02T08:26:18;20.07;50.40
71184;DHT22;58887;51.980;4.464;2023-07-02T08:28:44;20.01;49.13
71184;DHT22;58887;51.980;4.464;2023-07-02T08:31:09;20.30;48.92
71184;DHT22;58887;51.980;4.464;2023-07-02T08:33:35;20.40;48.82
71184;DHT22;58887;51.980;4.464;2023-07-02T08:36:00;20.75;49.25
71184;DHT22;58887;51.980;4.464;2023-07-02T08:38:26;20.98;48.20
71184;DHT22;58887;51.980;4.464;2023-07-02T08:40:52;21.18;48.21
71184;DHT22;58887;51.980;4.464;2023-07-02T08:43:17;21.23;49.18
71184;DHT22;58887;51.980;4.464;2023-07-02T08:45:44;20.55;50.55
71184;DHT22;58887;51.980;4.464;2023-07-02T08:48:11;20.82;50.53
71184;DHT22;58887;51.980;4.464;2023-07-02T08:50:37;20.96;49.47
71184;DHT22;58887;51.980;4.464;2023-07-02T08:53:03;21.35;49.83
71184;DHT22;58887;51.980;4.464;2023-07-02T08:55:28;21.12;49.04
71184;DHT22;58887;51.980;4.464;2023-07-02T08:58:03;20.65;47.51
71184;DHT22;58887;51.980;4.464;2023-07-02T09:00:28;20.28;48.64
71184;DHT22;58887;51.980;4.464;2023-07-02T09:02:58;20.71;47.80
71184;DHT22;58887;51.980;4.464;2023-07-02T09:05:29;20.75;47.37
71184;DHT22;58887;51.980;4.464;2023-07-02T09:07:55;20.34;50.70
71184;DHT22;58887;51.980;4.464;2023-07-02T09:10:27;20.81;51.37
71184;DHT22;58887;51.980;4.464;2023-07-02T09:13:07;21.20;49.42
71184;DHT22;58887;51.980;4.464;2023-07-02T09:15:40;20.94;48.04
71184;DHT22;58887;51.980;4.464;2023-07-02T09:18:20;21.06;47.32
71184;DHT22;58887;51.980;4.464;2023-07-02T09:21:06;20.84;46.49
71184;DHT22;58887;51.980;4.464;2023-07-02T09:23:36;20.63;47.10
71184;DHT22;58887;51.980;4.464;2023-07-02T09:26:03;20.71;46.34
71184;DHT22;58887;51.980;4.464;2023-07-02T09:28:30;20.74;46.25
71184;DHT22;58887;51.980;4.464;2023-07-02T09:30:57;20.85;47.03
71184;DHT22;58887;51.980;4.464;2023-07-02T09:33:27;20.69;47.64
71184;DHT22;58887;51.980;4.464;2023-07-02T09:35:53;21.00;47.61
71184;DHT22;58887;51.980;4.464;2023-07-02T09:38:21;21.30;45.49
71184;DHT22;58887;51.980;4.464;2023-07-02T09:40:49;20.81;46.00
71184;DHT22;58887;51.980;4.464;2023-07-02T09:43:17;21.27;45.00
71184;DHT22;58887;51.980;4.464;2023-07-02T09:45:50;21.15;46.03
71184;DHT22;58887;51.980;4.464;2023-07-02T09:48:24;21.47;45.96
71184;DHT22;58887;51.980;4.464;2023-07-02T09:50:58;21.63;43.29
71184;DHT22;58887;51.980;4.464;2023-07-02T09:53:27;21.35;44.18
71184;DHT22;58887;51.980;4.464;2023-07-02T09:55:54;21.84;45.06
71184;DHT22;58887;51.980;4.464;2023-07-02T09:58:22;22.41;42.94
71184;DHT22;58887;51.980;4.464;2023-07-02T10:00:51;22.12;42.65
71184;DHT22;58887;51.980;4.464;2023-07-02T10:03:28;21.43;40.86
71184;DHT22;58887;51.980;4.464;2023-07-02T10:06:02;22.14;39.90
71184;DHT22;58887;51.980;4.464;2023-07-02T10:08:31;22.49;40.76
71184;DHT22;58887;51.980;4.464;2023-07-02T10:11:08;22.60;41.31
71184;DHT22;58887;51.980;4.464;2023-07-02T10:13:34;22.67;41.41
71184;DHT22;58887;51.980;4.464;2023-07-02T10:16:05;22.74;40.82
71184;DHT22;58887;51.980;4.464;2023-07-02T10:18:31;23.14;39.93
71184;DHT22;58887;51.980;4.464;2023-07-02T10:20:56;23.32;39.26
71184;DHT22;58887;51.980;4.464;2023-07-02T10:23:33;22.77;40.33
71184;DHT22;58887;51.980;4.464;2023-07-02T10:26:30;22.72;39.48
71184;DHT22;58887;51.980;4.464;2023-07-02T10:28:59;21.57;41.76
71184;DHT22;58887;51.980;4.464;2023-07-02T10:31:28;21.78;41.09
71184;DHT22;58887;51.980;4.464;2023-07-02T10:33:55;22.08;40.77
71184;DHT22;58887;51.980;4.464;2023-07-02T10:36:23;21.49;42.46
71184;DHT22;58887;51.980;4.464;2023-07-02T10:38:52;21.70;41.32
71184;DHT22;58887;51.980;4.464;2023-07-02T10:41:30;21.54;43.09
71184;DHT22;58887;51.980;4.464;2023-07-02T10:44:09;21.42;42.76
71184;DHT22;58887;51.980;4.464;2023-07-02T10:46:43;21.57;42.78
71184;DHT22;58887;51.980;4.464;2023-07-02T10:49:18;21.22;43.39
71184;DHT22;58887;51.980;4.464;2023-07-02T10:51:57;22.19;42.03
71184;DHT22;58887;51.980;4.464;2023-07-02T10:54:23;21.91;42.57
71184;DHT22;58887;51.980;4.464;2023-07-02T10:56:49;22.59;42.07
71184;DHT22;58887;51.980;4.464;2023-07-02T10:59:37;23.78;38.85
71184;DHT22;58887;51.980;4.464;2023-07-02T11:02:02;23.17;39.86
71184;DHT22;58887;51.980;4.464;2023-07-02T11:04:33;23.14;40.14
71184;DHT22;58887;51.980;4.464;2023-07-02T11:07:00;23.66;38.69
71184;DHT22;58887;51.980;4.464;2023-07-02T11:09:26;22.96;39.42
71184;DHT22;58887;51.980;4.464;2023-07-02T11:11:55;23.18;37.57
71184;DHT22;58887;51.980;4.464;2023-07-02T11:14:34;23.10;38.02
71184;DHT22;58887;51.980;4.464;2023-07-02T11:17:05;22.94;38.60
71184;DHT22;58887;51.980;4.464;2023-07-02T11:19:32;23.28;37.80
71184;DHT22;58887;51.980;4.464;2023-07-02T11:22:00;22.82;39.00
71184;DHT22;58887;51.980;4.464;2023-07-02T11:24:36;23.31;37.79
71184;DHT22;58887;51.980;4.464;2023-07-02T11:27:03;23.85;37.41
71184;DHT22;58887;51.980;4.464;2023-07-02T11:29:34;24.50;36.28
71184;DHT22;58887;51.980;4.464;2023-07-02T11:32:11;24.14;36.58
71184;DHT22;58887;51.980;4.464;2023-07-02T11:34:40;24.14;36.47
71184;DHT22;58887;51.980;4.464;2023-07-02T11:37:06;24.16;37.80
71184;DHT22;58887;51.980;4.464;2023-07-02T11:39:32;24.12;37.38
71184;DHT22;58887;51.980;4.464;2023-07-02T11:41:58;24.57;37.04
71184;DHT22;58887;51.980;4.464;2023-07-02T11:44:24;24.13;37.98
71184;DHT22;58887;51.980;4.464;2023-07-02T11:46:49;24.13;37.96
71184;DHT22;58887;51.980;4.464;2023-07-02T11:49:15;23.51;38.76
71184;DHT22;58887;51.980;4.464;2023-07-02T11:51:42;24.03;38.10
71184;DHT22;58887;51.980;4.464;2023-07-02T11:54:15;23.86;36.33
71184;DHT22;58887;51.980;4.464;2023-07-02T11:56:41;23.90;38.30
71184;DHT22;58887;51.980;4.464;2023-07-02T11:59:08;24.53;35.53
71184;DHT22;58887;51.980;4.464;2023-07-02T12:01:34;24.84;36.52
71184;DHT22;58887;51.980;4.464;2023-07-02T12:03:59;25.12;35.71
71184;DHT22;58887;51.980;4.464;2023-07-02T12:06:32;24.24;35.62
71184;DHT22;58887;51.980;4.464;2023-07-02T12:08:57;23.45;35.13
71184;DHT22;58887;51.980;4.464;2023-07-02T12:11:26;22.14;39.79
71184;DHT22;58887;51.980;4.464;2023-07-02T12:13:52;23.08;38.96
71184;DHT22;58887;51.980;4.464;2023-07-02T12:16:21;24.36;36.83
71184;DHT22;58887;51.980;4.464;2023-07-02T12:18:46;24.54;36.07
71184;DHT22;58887;51.980;4.464;2023-07-02T12:21:12;24.10;37.73
71184;DHT22;58887;51.980;4.464;2023-07-02T12:23:37;23.62;36.79
71184;DHT22;58887;51.980;4.464;2023-07-02T12:26:03;23.88;36.51
71184;DHT22;58887;51.980;4.464;2023-07-02T12:28:28;23.42;37.60
71184;DHT22;58887;51.980;4.464;2023-07-02T12:30:54;24.33;35.42
71184;DHT22;58887;51.980;4.464;2023-07-02T12:33:19;24.74;33.47
71184;DHT22;58887;51.980;4.464;2023-07-02T12:35:45;24.36;35.52
71184;DHT22;58887;51.980;4.464;2023-07-02T12:38:10;23.65;36.15
71184;DHT22;58887;51.980;4.464;2023-07-02T12:40:36;24.27;36.18
71184;DHT22;58887;51.980;4.464;2023-07-02T12:43:01;24.67;35.28
71184;DHT22;58887;51.980;4.464;2023-07-02T12:45:27;25.26;33.91
71184;DHT22;58887;51.980;4.464;2023-07-02T12:47:54;24.00;36.31
71184;DHT22;58887;51.980;4.464;2023-07-02T12:50:20;23.55;35.74
71184;DHT22;58887;51.980;4.464;2023-07-02T12:52:45;23.61;33.63
71184;DHT22;58887;51.980;4.464;2023-07-02T12:55:12;23.57;35.28
71184;DHT22;58887;51.980;4.464;2023-07-02T12:57:37;23.58;36.28
71184;DHT22;58887;51.980;4.464;2023-07-02T13:00:03;23.54;36.55
71184;DHT22;58887;51.980;4.464;2023-07-02T13:02:31;24.81;36.57
71184;DHT22;58887;51.980;4.464;2023-07-02T13:04:57;24.23;35.92
71184;DHT22;58887;51.980;4.464;2023-07-02T13:07:24;22.96;37.79
71184;DHT22;58887;51.980;4.464;2023-07-02T13:09:52;23.54;36.46
71184;DHT22;58887;51.980;4.464;2023-07-02T13:12:17;23.61;35.35
71184;DHT22;58887;51.980;4.464;2023-07-02T13:14:50;24.54;32.43
71184;DHT22;58887;51.980;4.464;2023-07-02T13:17:17;24.57;34.04
71184;DHT22;58887;51.980;4.464;2023-07-02T13:19:43;24.17;35.46
71184;DHT22;58887;51.980;4.464;2023-07-02T13:22:10;24.53;35.11
71184;DHT22;58887;51.980;4.464;2023-07-02T13:24:38;23.72;34.94
71184;DHT22;58887;51.980;4.464;2023-07-02T13:27:11;25.15;35.26
71184;DHT22;58887;51.980;4.464;2023-07-02T13:29:38;25.18;33.28
71184;DHT22;58887;51.980;4.464;2023-07-02T13:32:03;26.09;32.42
71184;DHT22;58887;51.980;4.464;2023-07-02T13:34:29;25.97;34.17
71184;DHT22;58887;51.980;4.464;2023-07-02T13:36:54;24.41;33.19
71184;DHT22;58887;51.980;4.464;2023-07-02T13:39:20;24.40;34.58
71184;DHT22;58887;51.980;4.464;2023-07-02T13:41:45;24.21;34.36
71184;DHT22;58887;51.980;4.464;2023-07-02T13:44:14;23.69;35.95
71184;DHT22;58887;51.980;4.464;2023-07-02T13:46:39;24.13;35.46
71184;DHT22;58887;51.980;4.464;2023-07-02T13:49:05;25.30;34.60
71184;DHT22;58887;51.980;4.464;2023-07-02T13:51:31;23.99;36.23
71184;DHT22;58887;51.980;4.464;2023-07-02T13:53:56;24.54;35.71
71184;DHT22;58887;51.980;4.464;2023-07-02T13:56:22;24.33;35.38
71184;DHT22;58887;51.980;4.464;2023-07-02T14:01:25;25.43;34.75
71184;DHT22;58887;51.980;4.464;2023-07-02T14:03:51;25.70;34.33
71184;DHT22;58887;51.980;4.464;2023-07-02T14:06:18;25.49;35.29
71184;DHT22;58887;51.980;4.464;2023-07-02T14:08:46;26.38;33.21
71184;DHT22;58887;51.980;4.464;2023-07-02T14:11:12;25.56;34.51
71184;DHT22;58887;51.980;4.464;2023-07-02T14:13:38;25.86;33.89
71184;DHT22;58887;51.980;4.464;2023-07-02T14:16:03;25.14;35.08
71184;DHT22;58887;51.980;4.464;2023-07-02T14:18:29;24.34;36.68
71184;DHT22;58887;51.980;4.464;2023-07-02T14:20:54;24.56;37.58
71184;DHT22;58887;51.980;4.464;2023-07-02T14:23:20;24.34;36.54
71184;DHT22;58887;51.980;4.464;2023-07-02T14:25:46;24.44;36.79
71184;DHT22;58887;51.980;4.464;2023-07-02T14:28:11;24.02;38.23
71184;DHT22;58887;51.980;4.464;2023-07-02T14:30:37;24.63;36.84
71184;DHT22;58887;51.980;4.464;2023-07-02T14:33:03;24.29;36.95
71184;DHT22;58887;51.980;4.464;2023-07-02T14:35:29;23.71;39.02
71184;DHT22;58887;51.980;4.464;2023-07-02T14:37:58;23.42;40.52
71184;DHT22;58887;51.980;4.464;2023-07-02T14:40:24;23.45;40.03
71184;DHT22;58887;51.980;4.464;2023-07-02T14:42:50;23.06;39.91
71184;DHT22;58887;51.980;4.464;2023-07-02T14:45:16;23.08;40.42
71184;DHT22;58887;51.980;4.464;2023-07-02T14:47:41;22.89;40.92
71184;DHT22;58887;51.980;4.464;2023-07-02T14:50:07;23.28;40.29
71184;DHT22;58887;51.980;4.464;2023-07-02T14:52:33;23.78;40.02
71184;DHT22;58887;51.980;4.464;2023-07-02T14:54:58;24.84;38.85
71184;DHT22;58887;51.980;4.464;2023-07-02T14:57:26;26.26;35.64
71184;DHT22;58887;51.980;4.464;2023-07-02T14:59:54;25.39;36.30
71184;DHT22;58887;51.980;4.464;2023-07-02T15:02:20;24.39;37.90
71184;DHT22;58887;51.980;4.464;2023-07-02T15:04:45;24.51;36.26
71184;DHT22;58887;51.980;4.464;2023-07-02T15:07:11;25.71;34.97
71184;DHT22;58887;51.980;4.464;2023-07-02T15:09:37;25.77;34.15
71184;DHT22;58887;51.980;4.464;2023-07-02T15:12:04;25.76;34.45
71184;DHT22;58887;51.980;4.464;2023-07-02T15:14:30;26.18;33.84
71184;DHT22;58887;51.980;4.464;2023-07-02T15:16:55;25.19;35.09
71184;DHT22;58887;51.980;4.464;2023-07-02T15:19:22;25.49;34.74
71184;DHT22;58887;51.980;4.464;2023-07-02T15:21:49;25.78;34.58
71184;DHT22;58887;51.980;4.464;2023-07-02T15:24:15;24.94;35.68
71184;DHT22;58887;51.980;4.464;2023-07-02T15:26:43;24.37;37.54
71184;DHT22;58887;51.980;4.464;2023-07-02T15:29:09;24.24;37.30
71184;DHT22;58887;51.980;4.464;2023-07-02T15:31:34;24.29;38.32
71184;DHT22;58887;51.980;4.464;2023-07-02T15:34:02;25.37;36.78
71184;DHT22;58887;51.980;4.464;2023-07-02T15:36:29;24.68;38.08